Time;durP1;ratioP1;P1;durP2;ratioP2;P2;SDS_P1;SDS_P2;PMS_P1;PMS_P2;Temp;Humidity;BMP_temperature;BMP_pressure;BME280_temperature;BME280_humidity;BME280_pressure;Samples;Min_cycle;Max_cycle;Signal;HPM_P1;HPM_P2
2022/04/04 00:01:22;;;;;;;8.27;5.03;;;;;1.50;101493.00;;;;10137196;29;20207;-80
2022/04/04 00:06:28;;;;;;;8.77;4.60;;;;;1.50;101500.00;;;;10137438;29;20191;-80
2022/04/04 00:11:29;;;;;;;7.60;4.57;;;;;1.50;101489.00;;;;10152134;29;20255;-79
2022/04/04 00:16:32;;;;;;;8.40;4.03;;;;;1.60;101490.00;;;;10137046;29;20219;-79
2022/04/04 00:21:36;;;;;;;6.40;4.27;;;;;1.60;101484.00;;;;10161645;29;20199;-79
2022/04/04 00:26:37;;;;;;;9.60;4.13;;;;;1.70;101477.00;;;;10191622;29;20609;-80
2022/04/04 00:31:39;;;;;;;7.20;4.33;;;;;1.70;101472.00;;;;10175695;29;20195;-80
2022/04/04 00:36:43;;;;;;;8.03;4.50;;;;;1.70;101458.00;;;;10159359;29;20226;-79
2022/04/04 00:41:46;;;;;;;8.93;5.07;;;;;1.80;101457.00;;;;10174027;29;20194;-79
2022/04/04 00:46:48;;;;;;;8.47;5.03;;;;;1.80;101454.00;;;;10173651;29;20314;-79
2022/04/04 00:51:51;;;;;;;7.10;5.00;;;;;1.90;101444.00;;;;10173726;29;20307;-81
2022/04/04 00:56:54;;;;;;;8.10;5.13;;;;;1.90;101436.00;;;;10173663;29;20219;-81
2022/04/04 01:01:57;;;;;;;7.13;4.57;;;;;1.90;101426.00;;;;10157103;29;20368;-81
2022/04/04 01:06:59;;;;;;;8.10;4.93;;;;;1.90;101421.00;;;;10132766;29;20609;-81
2022/04/04 01:12:11;;;;;;;6.47;4.20;;;;;1.90;101423.00;;;;10132109;29;20225;-80
2022/04/04 01:17:19;;;;;;;6.23;4.47;;;;;2.00;101395.00;;;;10147989;29;20214;-81
2022/04/04 01:22:21;;;;;;;7.37;5.37;;;;;1.90;101397.00;;;;10175967;29;20232;-81
2022/04/04 01:27:23;;;;;;;8.07;5.10;;;;;1.90;101400.00;;;;10171502;29;20191;-80
2022/04/04 01:32:25;;;;;;;10.80;5.37;;;;;1.90;101394.00;;;;10198092;29;20194;-81
2022/04/04 01:37:27;;;;;;;7.40;5.20;;;;;1.90;101383.00;;;;10186881;29;20233;-79
2022/04/04 01:42:29;;;;;;;7.10;4.90;;;;;1.80;101378.00;;;;10147178;29;20301;-81
2022/04/04 01:47:31;;;;;;;8.77;4.53;;;;;1.80;101368.00;;;;10118534;29;20697;-81
2022/04/04 01:52:33;;;;;;;6.70;4.93;;;;;1.70;101360.00;;;;10169586;29;20194;-80
2022/04/04 01:57:35;;;;;;;7.10;4.77;;;;;1.70;101347.00;;;;10170657;29;20318;-80
2022/04/04 02:02:37;;;;;;;8.33;5.17;;;;;1.60;101337.00;;;;10170226;29;20213;-81
2022/04/04 02:07:39;;;;;;;6.80;4.90;;;;;1.70;101326.00;;;;10186167;29;20201;-80
2022/04/04 02:12:41;;;;;;;10.10;5.33;;;;;1.70;101334.00;;;;10185922;29;20194;-81
2022/04/04 02:17:43;;;;;;;8.43;5.17;;;;;1.80;101321.00;;;;10185549;29;20221;-82
2022/04/04 02:22:45;;;;;;;8.23;5.53;;;;;1.90;101316.00;;;;10203056;29;20744;-81
2022/04/04 02:27:48;;;;;;;6.70;5.63;;;;;1.90;101307.00;;;;10225150;29;20601;-81
2022/04/04 02:32:50;;;;;;;8.83;5.50;;;;;2.00;101298.00;;;;10187123;29;20203;-81
2022/04/04 02:37:52;;;;;;;11.77;6.17;;;;;2.00;101297.00;;;;10169158;29;20230;-81
2022/04/04 02:42:54;;;;;;;8.80;5.70;;;;;2.10;101284.00;;;;10170148;29;20209;-80
2022/04/04 02:47:56;;;;;;;9.17;6.77;;;;;2.10;101279.00;;;;10179836;29;20191;-81
2022/04/04 02:52:59;;;;;;;12.20;6.37;;;;;2.20;101269.00;;;;10167840;29;20306;-79
2022/04/04 02:58:01;;;;;;;11.47;6.70;;;;;2.30;101260.00;;;;10168889;29;20214;-82
2022/04/04 03:03:03;;;;;;;9.53;6.53;;;;;2.40;101248.00;;;;10188891;29;20194;-81
2022/04/04 03:08:05;;;;;;;12.07;7.60;;;;;2.50;101237.00;;;;10206122;29;20198;-80
2022/04/04 03:13:07;;;;;;;10.87;7.03;;;;;2.60;101236.00;;;;10176556;29;20198;-82
2022/04/04 03:18:10;;;;;;;12.70;7.60;;;;;2.60;101230.00;;;;10176172;29;20210;-81
2022/04/04 03:23:12;;;;;;;10.93;7.83;;;;;2.60;101214.00;;;;10191019;29;20246;-80
2022/04/04 03:28:14;;;;;;;11.10;7.87;;;;;2.60;101202.00;;;;10191255;29;20227;-82
2022/04/04 03:33:16;;;;;;;12.47;8.23;;;;;2.60;101197.00;;;;10176409;29;20290;-82
2022/04/04 03:38:18;;;;;;;14.60;8.37;;;;;2.50;101191.00;;;;10190840;29;20297;-81
2022/04/04 03:43:21;;;;;;;11.20;7.60;;;;;2.50;101177.00;;;;10180838;29;20203;-81
2022/04/04 03:48:24;;;;;;;12.43;7.63;;;;;2.50;101171.00;;;;10161170;29;20191;-80
2022/04/04 03:53:26;;;;;;;13.37;8.17;;;;;2.60;101158.00;;;;10175114;29;20217;-80
2022/04/04 03:58:28;;;;;;;11.67;7.87;;;;;2.50;101155.00;;;;10174750;29;20313;-81
2022/04/04 04:03:31;;;;;;;11.80;7.97;;;;;2.50;101143.00;;;;10159864;29;20195;-80
2022/04/04 04:08:33;;;;;;;13.80;7.93;;;;;2.50;101128.00;;;;10189942;29;20229;-80
2022/04/04 04:13:36;;;;;;;13.17;8.13;;;;;2.60;101125.00;;;;10174119;29;20198;-80
2022/04/04 04:18:39;;;;;;;11.00;7.97;;;;;2.60;101121.00;;;;10158866;29;20221;-80
2022/04/04 04:23:42;;;;;;;13.33;8.30;;;;;2.60;101121.00;;;;10199487;29;20198;-80
2022/04/04 04:28:46;;;;;;;11.77;8.30;;;;;2.60;101114.00;;;;10206814;29;20194;-81
2022/04/04 04:33:49;;;;;;;12.37;8.33;;;;;2.70;101100.00;;;;10173954;29;20210;-80
2022/04/04 04:38:51;;;;;;;10.30;7.17;;;;;2.70;101095.00;;;;10158089;29;20589;-79
2022/04/04 04:43:53;;;;;;;17.67;8.43;;;;;2.70;101091.00;;;;10173355;29;20217;-81
2022/04/04 04:48:55;;;;;;;11.90;7.43;;;;;2.70;101082.00;;;;10157476;29;20262;-81
2022/04/04 04:53:57;;;;;;;14.23;8.13;;;;;2.70;101075.00;;;;10159146;29;20801;-82
2022/04/04 04:58:59;;;;;;;10.93;8.10;;;;;2.80;101071.00;;;;10133443;29;20275;-81
2022/04/04 05:04:01;;;;;;;13.63;8.20;;;;;2.80;101065.00;;;;10134222;29;20207;-81
2022/04/04 05:09:03;;;;;;;11.63;8.10;;;;;2.90;101061.00;;;;10147595;29;20262;-81
2022/04/04 05:14:05;;;;;;;10.17;8.20;;;;;2.90;101046.00;;;;10148971;29;20247;-80
2022/04/04 05:19:07;;;;;;;12.50;8.43;;;;;3.10;101048.00;;;;10147175;29;20227;-79
2022/04/04 05:24:09;;;;;;;12.57;8.37;;;;;3.10;101035.00;;;;10205046;28;20201;-81
2022/04/04 05:29:11;;;;;;;7.40;5.77;;;;;3.20;101042.00;;;;10211260;29;20190;-81
2022/04/04 05:34:13;;;;;;;9.40;7.50;;;;;3.40;101029.00;;;;10226607;29;20182;-81
2022/04/04 05:39:16;;;;;;;13.87;8.17;;;;;3.60;101020.00;;;;10225746;28;20759;-81
2022/04/04 05:44:18;;;;;;;10.43;7.00;;;;;3.80;101018.00;;;;10225971;29;20264;-81
2022/04/04 05:49:20;;;;;;;9.30;6.73;;;;;4.10;101008.00;;;;10210118;29;20194;-80
2022/04/04 05:54:22;;;;;;;13.27;7.63;;;;;4.30;101006.00;;;;10166934;29;20206;-79
2022/04/04 05:59:25;;;;;;;12.80;7.77;;;;;4.50;100994.00;;;;10158197;29;20226;-78
2022/04/04 06:04:28;;;;;;;11.27;7.73;;;;;4.70;100996.00;;;;10183996;29;20725;-79
2022/04/04 06:09:30;;;;;;;9.27;7.00;;;;;4.90;100992.00;;;;10155080;29;20186;-80
2022/04/04 06:14:32;;;;;;;11.77;7.40;;;;;5.10;100974.00;;;;10170830;29;20291;-81
2022/04/04 06:19:34;;;;;;;11.97;7.47;;;;;5.40;100970.00;;;;10171400;29;20286;-78
2022/04/04 06:24:37;;;;;;;11.83;7.47;;;;;5.60;100960.00;;;;10189137;29;20212;-80
2022/04/04 06:29:39;;;;;;;14.57;8.13;;;;;5.70;100949.00;;;;10179043;29;20202;-80
2022/04/04 06:34:41;;;;;;;17.80;8.13;;;;;5.80;100946.00;;;;10171843;29;20209;-80
2022/04/04 06:39:44;;;;;;;12.70;8.07;;;;;5.90;100926.00;;;;10155045;29;20222;-80
2022/04/04 06:44:47;;;;;;;16.07;8.80;;;;;6.10;100930.00;;;;10155441;29;20221;-79
2022/04/04 06:49:52;;;;;;;12.47;7.53;;;;;6.10;100925.00;;;;10156297;29;20190;-80
2022/04/04 06:54:55;;;;;;;15.00;8.07;;;;;6.00;100917.00;;;;10145771;29;20207;-80
2022/04/04 06:59:57;;;;;;;15.80;8.00;;;;;6.00;100905.00;;;;10145254;29;20250;-81
2022/04/04 07:04:59;;;;;;;11.73;7.93;;;;;6.20;100894.00;;;;10169211;29;20736;-80
2022/04/04 07:10:03;;;;;;;15.33;8.70;;;;;6.60;100903.00;;;;10154102;29;20225;-80
2022/04/04 07:15:07;;;;;;;12.60;8.13;;;;;7.20;100883.00;;;;10185044;29;20206;-80
2022/04/04 07:20:10;;;;;;;12.60;8.50;;;;;7.80;100887.00;;;;10170200;29;20218;-80
2022/04/04 07:25:14;;;;;;;10.30;6.93;;;;;8.30;100865.00;;;;10204866;29;20652;-79
2022/04/04 07:30:18;;;;;;;9.60;7.47;;;;;8.60;100864.00;;;;10169203;29;20187;-80
2022/04/04 07:35:20;;;;;;;14.07;7.47;;;;;8.90;100853.00;;;;10157047;29;20203;-79
2022/04/04 07:40:22;;;;;;;11.70;7.60;;;;;8.90;100862.00;;;;10130951;29;20223;-80
2022/04/04 07:45:27;;;;;;;11.83;7.43;;;;;9.00;100820.00;;;;10160928;29;20203;-80
2022/04/04 07:50:30;;;;;;;15.50;7.67;;;;;9.40;100835.00;;;;10158196;29;20565;-80
2022/04/04 07:55:32;;;;;;;12.00;7.87;;;;;9.70;100816.00;;;;10137831;29;20687;-80
2022/04/04 08:00:34;;;;;;;11.20;7.27;;;;;9.60;100808.00;;;;10151833;29;20278;-79
2022/04/04 08:05:36;;;;;;;15.93;7.33;;;;;9.60;100807.00;;;;10121603;29;20255;-80
2022/04/04 08:10:38;;;;;;;9.50;6.67;;;;;9.70;100804.00;;;;10135945;29;20202;-80
2022/04/04 08:15:40;;;;;;;12.87;6.60;;;;;9.40;100798.00;;;;10120320;29;20611;-80
2022/04/04 08:20:43;;;;;;;13.13;7.80;;;;;9.10;100794.00;;;;10136224;29;20227;-81
2022/04/04 08:25:59;;;;;;;9.30;7.07;;;;;9.00;100793.00;;;;10122726;29;20199;-80
2022/04/04 08:31:02;;;;;;;13.73;7.23;;;;;9.00;100787.00;;;;10177449;29;20262;-79
2022/04/04 08:36:05;;;;;;;14.33;7.73;;;;;8.80;100785.00;;;;10173295;29;20230;-80
2022/04/04 08:41:09;;;;;;;10.33;7.67;;;;;8.50;100775.00;;;;10135973;29;20227;-80
2022/04/04 08:46:11;;;;;;;10.80;7.97;;;;;8.00;100771.00;;;;10137727;29;20191;-79
2022/04/04 08:51:14;;;;;;;14.03;8.40;;;;;7.80;100761.00;;;;10173196;29;20203;-80
2022/04/04 08:56:17;;;;;;;11.33;8.50;;;;;8.00;100745.00;;;;10148869;29;20259;-79
2022/04/04 09:01:21;;;;;;;9.53;7.93;;;;;7.90;100746.00;;;;10174792;29;20246;-80
2022/04/04 09:06:27;;;;;;;12.43;8.83;;;;;7.90;100734.00;;;;10158634;29;20209;-80
2022/04/04 09:11:29;;;;;;;14.83;9.60;;;;;7.50;100736.00;;;;10134793;29;20228;-81
2022/04/04 09:16:34;;;;;;;12.60;8.53;;;;;7.50;100717.00;;;;10134026;29;20262;-80
2022/04/04 09:21:38;;;;;;;11.90;9.63;;;;;7.90;100720.00;;;;10149784;29;20244;-80
2022/04/04 09:26:44;;;;;;;12.83;8.57;;;;;7.90;100711.00;;;;10211291;29;20198;-80
2022/04/04 09:32:14;;;;;;;12.73;8.57;;;;;8.30;100694.00;;;;10200393;29;20409;-80
2022/04/04 09:37:16;;;;;;;12.03;9.33;;;;;8.30;100686.00;;;;10133196;29;20777;-80
2022/04/04 09:42:20;;;;;;;15.07;9.97;;;;;8.10;100683.00;;;;10132579;29;20242;-80
2022/04/04 09:47:22;;;;;;;12.33;9.07;;;;;8.20;100675.00;;;;10151285;29;20227;-80
2022/04/04 09:52:24;;;;;;;11.00;8.70;;;;;8.10;100677.00;;;;10187666;29;20253;-80
2022/04/04 09:57:28;;;;;;;11.57;8.50;;;;;8.00;100653.00;;;;10133486;29;20223;-80
2022/04/04 10:02:30;;;;;;;12.77;8.07;;;;;7.90;100661.00;;;;10148005;29;20235;-80
2022/04/04 10:07:32;;;;;;;15.60;8.87;;;;;8.00;100654.00;;;;10147324;29;20551;-79
2022/04/04 10:12:35;;;;;;;11.07;9.00;;;;;7.90;100650.00;;;;10148108;29;20259;-79
2022/04/04 10:17:38;;;;;;;11.33;8.40;;;;;7.90;100648.00;;;;10131195;29;20516;-80
2022/04/04 10:22:40;;;;;;;9.80;8.63;;;;;7.90;100643.00;;;;10164162;29;20661;-81
2022/04/04 10:27:47;;;;;;;12.40;8.37;;;;;7.80;100635.00;;;;10154593;29;20190;-80
2022/04/04 10:32:51;;;;;;;10.60;7.30;;;;;7.60;100636.00;;;;10171590;29;20190;-78
2022/04/04 10:37:58;;;;;;;13.23;8.43;;;;;7.90;100622.00;;;;10169311;29;20234;-79
2022/04/04 10:43:13;;;;;;;11.20;7.80;;;;;8.50;100633.00;;;;10185933;29;20254;-79
2022/04/04 10:48:17;;;;;;;15.00;11.53;;;;;8.40;100607.00;;;;10158068;29;20258;-80
2022/04/04 10:53:39;;;;;;;14.70;10.67;;;;;8.60;100610.00;;;;10170250;29;20198;-79
2022/04/04 10:58:41;;;;;;;10.60;9.43;;;;;9.00;100595.00;;;;10169148;29;20210;-80
2022/04/04 11:03:52;;;;;;;13.13;8.60;;;;;9.20;100591.00;;;;10170047;29;20203;-80
2022/04/04 11:09:04;;;;;;;13.07;7.47;;;;;9.50;100590.00;;;;10163465;29;20211;-80
2022/04/04 11:14:06;;;;;;;11.00;7.53;;;;;9.40;100588.00;;;;10116073;29;20202;-80
2022/04/04 11:19:10;;;;;;;9.40;6.87;;;;;8.80;100597.00;;;;10131008;29;20218;-80
2022/04/04 11:24:12;;;;;;;10.30;7.70;;;;;8.60;100583.00;;;;10159931;29;20221;-80
2022/04/04 11:29:19;;;;;;;9.50;7.57;;;;;8.40;100574.00;;;;10163957;29;20721;-81
2022/04/04 11:34:23;;;;;;;9.50;8.27;;;;;8.40;100571.00;;;;10177294;29;20206;-81
2022/04/04 11:39:25;;;;;;;9.47;7.77;;;;;8.50;100590.00;;;;10192921;29;20285;-81
2022/04/04 11:44:47;;;;;;;12.67;7.53;;;;;9.10;100555.00;;;;10148998;29;20262;-81
2022/04/04 11:49:52;;;;;;;13.43;8.33;;;;;9.20;100569.00;;;;10158855;29;20209;-81
2022/04/04 11:54:54;;;;;;;10.87;8.07;;;;;9.50;100553.00;;;;10175135;29;20198;-81
2022/04/04 11:59:57;;;;;;;10.80;8.60;;;;;9.10;100544.00;;;;10149622;29;20250;-81
2022/04/04 12:04:59;;;;;;;9.50;7.97;;;;;8.80;100543.00;;;;10168198;29;20267;-81
2022/04/04 12:10:01;;;;;;;9.40;8.47;;;;;8.90;100526.00;;;;10168672;29;20202;-81
2022/04/04 12:15:04;;;;;;;10.57;8.07;;;;;8.70;100532.00;;;;10176263;29;20199;-81
2022/04/04 12:20:11;;;;;;;11.47;7.83;;;;;8.40;100525.00;;;;10193749;29;20230;-81
2022/04/04 12:25:13;;;;;;;10.97;8.33;;;;;8.50;100520.00;;;;10198855;29;20680;-82
2022/04/04 12:30:15;;;;;;;13.20;9.30;;;;;8.30;100510.00;;;;10213282;29;20202;-81
2022/04/04 12:35:20;;;;;;;8.43;7.60;;;;;8.30;100495.00;;;;10161403;29;20206;-81
2022/04/04 12:40:25;;;;;;;13.53;8.63;;;;;8.40;100487.00;;;;10162309;29;20321;-81
2022/04/04 12:45:31;;;;;;;13.50;8.33;;;;;8.50;100490.00;;;;10176669;29;20198;-81
2022/04/04 12:50:39;;;;;;;9.70;8.13;;;;;8.10;100490.00;;;;10160109;29;20202;-81
2022/04/04 12:56:00;;;;;;;16.57;12.03;;;;;7.90;100494.00;;;;10191829;29;20225;-81
2022/04/04 13:01:13;;;;;;;13.60;11.27;;;;;7.50;100505.00;;;;10168005;29;20234;-80
2022/04/04 13:06:17;;;;;;;11.43;8.70;;;;;7.70;100490.00;;;;10187490;29;20230;-81
2022/04/04 13:11:19;;;;;;;13.43;9.03;;;;;8.00;100503.00;;;;10175329;29;20265;-82
2022/04/04 13:16:30;;;;;;;16.63;9.87;;;;;8.30;100491.00;;;;10136023;29;20303;-81
2022/04/04 13:21:37;;;;;;;14.83;10.33;;;;;7.90;100481.00;;;;10156130;29;20222;-80
2022/04/04 13:26:41;;;;;;;13.30;10.43;;;;;7.70;100494.00;;;;10175522;29;20209;-82
2022/04/04 13:31:45;;;;;;;15.97;10.30;;;;;7.80;100482.00;;;;10157787;29;20282;-80
2022/04/04 13:36:48;;;;;;;12.87;10.60;;;;;7.50;100487.00;;;;10149119;29;20234;-80
2022/04/04 13:41:50;;;;;;;13.53;10.53;;;;;7.80;100478.00;;;;10185163;29;20206;-81
2022/04/04 13:46:52;;;;;;;14.87;11.37;;;;;8.10;100480.00;;;;10173868;29;20367;-80
2022/04/04 13:51:56;;;;;;;16.60;11.43;;;;;7.70;100482.00;;;;10179028;29;20671;-81
2022/04/04 13:56:58;;;;;;;13.97;10.67;;;;;7.50;100463.00;;;;10134900;29;20195;-81
2022/04/04 14:02:02;;;;;;;16.30;10.97;;;;;7.30;100477.00;;;;10138268;29;20222;-81
2022/04/04 14:07:05;;;;;;;12.07;10.77;;;;;7.30;100469.00;;;;10134509;29;20203;-81
2022/04/04 14:12:08;;;;;;;15.83;10.90;;;;;7.70;100463.00;;;;10149561;29;20191;-79
2022/04/04 14:17:09;;;;;;;12.70;10.53;;;;;7.90;100465.00;;;;10164936;29;20199;-81
2022/04/04 14:22:13;;;;;;;11.87;10.13;;;;;8.10;100453.00;;;;10178875;29;20206;-81
2022/04/04 14:27:15;;;;;;;13.33;10.97;;;;;8.40;100462.00;;;;10158465;29;20297;-81
2022/04/04 14:32:18;;;;;;;14.60;10.77;;;;;8.20;100471.00;;;;10180244;29;20195;-81
2022/04/04 14:37:20;;;;;;;12.87;10.53;;;;;8.00;100454.00;;;;10165471;29;20237;-80
2022/04/04 14:42:22;;;;;;;12.20;9.30;;;;;7.70;100454.00;;;;10149616;29;20195;-80
2022/04/04 14:47:24;;;;;;;13.67;10.67;;;;;7.80;100440.00;;;;10150321;29;20227;-80
2022/04/04 14:52:30;;;;;;;11.27;10.07;;;;;8.30;100428.00;;;;10163054;29;20312;-80
2022/04/04 14:57:32;;;;;;;11.30;9.00;;;;;8.40;100434.00;;;;10150663;29;20203;-81
2022/04/04 15:02:38;;;;;;;9.50;8.33;;;;;8.40;100433.00;;;;10157338;29;20199;-81
2022/04/04 15:08:01;;;;;;;10.73;8.80;;;;;8.40;100416.00;;;;10143362;29;20198;-81
2022/04/04 15:13:03;;;;;;;9.27;8.37;;;;;8.20;100419.00;;;;10156950;29;20228;-81
2022/04/04 15:18:05;;;;;;;13.53;9.67;;;;;8.00;100419.00;;;;10141076;29;20222;-80
2022/04/04 15:23:12;;;;;;;13.33;9.40;;;;;7.90;100406.00;;;;10177332;29;20213;-81
2022/04/04 15:28:14;;;;;;;11.87;8.67;;;;;7.80;100415.00;;;;10177535;29;20222;-81
2022/04/04 15:33:16;;;;;;;10.00;8.60;;;;;7.60;100420.00;;;;10169246;29;20217;-81
2022/04/04 15:38:18;;;;;;;9.10;8.17;;;;;7.50;100413.00;;;;10154030;29;20286;-81
2022/04/04 15:43:21;;;;;;;10.83;9.17;;;;;7.50;100407.00;;;;10126627;29;20230;-81
2022/04/04 15:48:23;;;;;;;8.10;7.30;;;;;7.40;100399.00;;;;10157712;29;20199;-81
2022/04/04 15:53:26;;;;;;;8.20;7.40;;;;;7.20;100396.00;;;;10155043;29;20196;-81
2022/04/04 15:58:28;;;;;;;12.43;7.87;;;;;7.20;100404.00;;;;10154784;29;20222;-80
2022/04/04 16:03:32;;;;;;;9.17;7.93;;;;;7.10;100394.00;;;;10155372;29;20544;-80
2022/04/04 16:08:34;;;;;;;13.13;9.37;;;;;7.00;100392.00;;;;10139670;29;20191;-81
2022/04/04 16:13:36;;;;;;;10.70;9.60;;;;;7.00;100391.00;;;;10146524;29;20297;-81
2022/04/04 16:18:39;;;;;;;17.80;10.50;;;;;6.90;100399.00;;;;10161770;29;20219;-81
2022/04/04 16:23:43;;;;;;;12.97;9.83;;;;;6.90;100400.00;;;;10218922;29;20201;-81
2022/04/04 16:28:47;;;;;;;10.57;9.57;;;;;6.90;100409.00;;;;10232930;29;20197;-80
2022/04/04 16:33:50;;;;;;;11.80;8.97;;;;;7.00;100407.00;;;;10231861;29;20241;-81
2022/04/04 16:38:53;;;;;;;10.83;9.17;;;;;7.00;100395.00;;;;10169500;29;20258;-81
2022/04/04 16:43:55;;;;;;;10.80;9.63;;;;;7.00;100403.00;;;;10137345;29;20221;-80
2022/04/04 16:48:57;;;;;;;9.60;8.60;;;;;7.00;100399.00;;;;10154019;29;20195;-81
2022/04/04 16:53:59;;;;;;;9.47;8.57;;;;;7.00;100402.00;;;;10140587;29;20670;-82
2022/04/04 16:59:01;;;;;;;8.83;8.03;;;;;7.00;100407.00;;;;10145767;29;20225;-81
2022/04/04 17:04:06;;;;;;;9.97;8.97;;;;;7.00;100396.00;;;;10175294;29;20198;-81
2022/04/04 17:09:09;;;;;;;11.57;10.33;;;;;7.00;100393.00;;;;10175658;29;20591;-81
2022/04/04 17:14:11;;;;;;;10.27;9.13;;;;;6.90;100388.00;;;;10173989;29;20198;-81
2022/04/04 17:19:13;;;;;;;12.33;9.77;;;;;6.90;100389.00;;;;10158474;29;20254;-80
2022/04/04 17:24:15;;;;;;;10.87;9.47;;;;;6.90;100377.00;;;;10158778;29;20654;-81
2022/04/04 17:29:17;;;;;;;8.83;8.00;;;;;6.80;100387.00;;;;10173783;29;20198;-81
2022/04/04 17:34:19;;;;;;;8.67;7.90;;;;;6.80;100377.00;;;;10174218;29;20393;-82
2022/04/04 17:39:22;;;;;;;9.20;8.30;;;;;6.80;100366.00;;;;10174091;29;20285;-81
2022/04/04 17:44:25;;;;;;;11.40;8.30;;;;;6.80;100364.00;;;;10173935;29;20204;-81
2022/04/04 17:49:27;;;;;;;8.03;7.23;;;;;6.80;100362.00;;;;10153668;29;20205;-80
2022/04/04 17:54:32;;;;;;;11.13;9.77;;;;;6.70;100356.00;;;;10188065;29;20293;-82
2022/04/04 17:59:34;;;;;;;9.57;8.63;;;;;6.80;100346.00;;;;10170489;29;20221;-81
2022/04/04 18:04:36;;;;;;;12.23;9.40;;;;;6.80;100361.00;;;;10162323;29;20207;-79
2022/04/04 18:09:38;;;;;;;9.13;8.20;;;;;6.80;100359.00;;;;10132426;29;20210;-82
2022/04/04 18:14:41;;;;;;;10.67;9.67;;;;;6.80;100345.00;;;;10147668;29;20212;-82
2022/04/04 18:19:43;;;;;;;11.27;9.53;;;;;6.80;100348.00;;;;10145754;29;20267;-81
2022/04/04 18:24:45;;;;;;;10.63;9.53;;;;;6.80;100343.00;;;;10146326;29;20607;-81
2022/04/04 18:29:47;;;;;;;11.87;10.67;;;;;6.80;100335.00;;;;10160650;29;20281;-82
2022/04/04 18:34:49;;;;;;;11.70;10.50;;;;;6.90;100335.00;;;;10184912;29;20289;-80
2022/04/04 18:39:53;;;;;;;12.80;11.17;;;;;6.90;100332.00;;;;10145718;29;20265;-81
2022/04/04 18:44:55;;;;;;;12.07;10.43;;;;;6.90;100325.00;;;;10162037;29;20199;-81
2022/04/04 18:49:57;;;;;;;11.73;10.53;;;;;7.00;100330.00;;;;10161698;29;20219;-80
2022/04/04 18:54:59;;;;;;;12.93;11.27;;;;;7.00;100318.00;;;;10167239;29;20213;-81
2022/04/04 19:00:01;;;;;;;13.97;12.07;;;;;7.10;100316.00;;;;10145899;29;20323;-80
2022/04/04 19:05:03;;;;;;;15.23;13.73;;;;;7.10;100322.00;;;;10184591;29;20202;-80
2022/04/04 19:10:06;;;;;;;14.80;13.30;;;;;7.20;100325.00;;;;10183353;29;20206;-81
2022/04/04 19:15:09;;;;;;;14.77;13.13;;;;;7.20;100315.00;;;;10183312;29;20202;-81
2022/04/04 19:20:11;;;;;;;19.53;16.03;;;;;7.20;100314.00;;;;10127637;29;20238;-80
2022/04/04 19:25:13;;;;;;;19.10;14.80;;;;;7.30;100321.00;;;;10209769;29;20203;-80
2022/04/04 19:30:16;;;;;;;20.80;16.73;;;;;7.30;100314.00;;;;10182572;29;20654;-81
2022/04/04 19:35:18;;;;;;;17.30;14.63;;;;;7.30;100331.00;;;;10152091;29;20250;-81
2022/04/04 19:40:20;;;;;;;19.67;15.03;;;;;7.20;100316.00;;;;10166385;29;20234;-81
2022/04/04 19:45:24;;;;;;;15.73;13.30;;;;;7.20;100308.00;;;;10156864;29;20203;-81
2022/04/04 19:50:26;;;;;;;15.63;14.03;;;;;7.30;100318.00;;;;10149439;29;20206;-80
2022/04/04 19:55:30;;;;;;;16.07;14.00;;;;;7.30;100314.00;;;;10187834;29;20214;-80
2022/04/04 20:00:33;;;;;;;15.83;13.73;;;;;7.30;100303.00;;;;10188355;29;20347;-81
2022/04/04 20:05:35;;;;;;;13.47;12.10;;;;;7.30;100323.00;;;;10155260;29;20199;-82
2022/04/04 20:10:37;;;;;;;14.80;12.50;;;;;7.30;100313.00;;;;10150314;29;20191;-81
2022/04/04 20:15:40;;;;;;;14.47;12.97;;;;;7.30;100319.00;;;;10181379;29;20289;-81
2022/04/04 20:20:42;;;;;;;13.73;12.33;;;;;7.30;100313.00;;;;10168000;29;20227;-81
2022/04/04 20:25:44;;;;;;;15.70;12.87;;;;;7.30;100317.00;;;;10228075;29;20196;-81
2022/04/04 20:30:46;;;;;;;13.73;12.33;;;;;7.40;100317.00;;;;10183143;29;20347;-82
2022/04/04 20:35:48;;;;;;;13.23;11.83;;;;;7.40;100310.00;;;;10148926;29;20243;-81
2022/04/04 20:40:54;;;;;;;12.23;10.90;;;;;7.40;100299.00;;;;10164238;29;20618;-82
2022/04/04 20:45:57;;;;;;;10.93;9.80;;;;;7.50;100288.00;;;;10171960;29;20209;-81
2022/04/04 20:50:59;;;;;;;11.67;9.90;;;;;7.50;100289.00;;;;10145511;29;20194;-82
2022/04/04 20:56:01;;;;;;;12.10;10.67;;;;;7.50;100282.00;;;;10186290;29;20213;-82
2022/04/04 21:01:03;;;;;;;12.80;11.47;;;;;7.60;100280.00;;;;10186663;29;20748;-81
2022/04/04 21:06:05;;;;;;;12.73;11.30;;;;;7.60;100282.00;;;;10172299;29;20198;-82
2022/04/04 21:11:07;;;;;;;13.47;11.97;;;;;7.60;100287.00;;;;10188152;29;20194;-81
2022/04/04 21:16:09;;;;;;;13.00;11.60;;;;;7.60;100282.00;;;;10172507;29;20298;-81
2022/04/04 21:21:11;;;;;;;12.00;10.80;;;;;7.60;100267.00;;;;10165484;29;20365;-82
2022/04/04 21:26:15;;;;;;;12.33;10.90;;;;;7.70;100274.00;;;;10148476;29;20614;-81
2022/04/04 21:31:18;;;;;;;13.93;12.43;;;;;7.70;100275.00;;;;10134060;29;20190;-80
2022/04/04 21:36:20;;;;;;;14.53;12.07;;;;;7.70;100258.00;;;;10161938;29;20215;-80
2022/04/04 21:41:22;;;;;;;14.57;12.10;;;;;7.70;100256.00;;;;10146199;29;20230;-81
2022/04/04 21:46:24;;;;;;;14.23;12.70;;;;;7.70;100267.00;;;;10145477;29;20619;-81
2022/04/04 21:51:26;;;;;;;13.93;12.30;;;;;7.70;100271.00;;;;10184436;29;20585;-82
2022/04/04 21:56:29;;;;;;;14.27;12.13;;;;;7.80;100266.00;;;;10157980;29;20195;-82
2022/04/04 22:01:31;;;;;;;14.80;12.10;;;;;7.80;100263.00;;;;10150127;29;20218;-81
2022/04/04 22:06:33;;;;;;;13.83;12.33;;;;;7.80;100268.00;;;;10168691;29;20562;-82
2022/04/04 22:11:35;;;;;;;17.37;13.70;;;;;7.80;100264.00;;;;10168173;29;20194;-82
2022/04/04 22:16:37;;;;;;;15.47;13.17;;;;;7.80;100270.00;;;;10167893;29;20198;-82
2022/04/04 22:21:39;;;;;;;16.77;14.97;;;;;7.90;100274.00;;;;10183289;29;20433;-82
2022/04/04 22:26:41;;;;;;;21.57;15.80;;;;;7.90;100259.00;;;;10167804;29;20206;-83
2022/04/04 22:31:43;;;;;;;18.33;14.37;;;;;7.90;100266.00;;;;10183535;29;20199;-81
2022/04/04 22:36:45;;;;;;;17.57;14.93;;;;;8.00;100271.00;;;;10182421;29;20230;-81
2022/04/04 22:41:47;;;;;;;19.13;15.77;;;;;8.00;100281.00;;;;10166538;29;20752;-82
2022/04/04 22:46:49;;;;;;;21.13;16.60;;;;;8.00;100261.00;;;;10167145;29;20234;-82
2022/04/04 22:51:51;;;;;;;23.30;17.73;;;;;8.10;100264.00;;;;10166602;29;20202;-81
2022/04/04 22:56:53;;;;;;;26.70;17.17;;;;;8.10;100270.00;;;;10143113;29;20203;-80
2022/04/04 23:01:55;;;;;;;31.13;20.10;;;;;8.20;100268.00;;;;10143012;29;20227;-80
2022/04/04 23:06:57;;;;;;;27.17;19.57;;;;;8.20;100254.00;;;;10142845;29;20199;-80
2022/04/04 23:11:59;;;;;;;30.60;20.57;;;;;8.30;100260.00;;;;10153883;29;20210;-80
2022/04/04 23:17:01;;;;;;;30.23;21.10;;;;;8.30;100261.00;;;;10181167;29;20285;-80
2022/04/04 23:22:03;;;;;;;31.03;22.20;;;;;8.30;100253.00;;;;10182688;29;20226;-80
2022/04/04 23:27:05;;;;;;;35.00;22.90;;;;;8.40;100256.00;;;;10165358;29;20199;-80
2022/04/04 23:32:07;;;;;;;34.53;23.30;;;;;8.50;100245.00;;;;10181663;29;20867;-81
2022/04/04 23:37:10;;;;;;;34.40;22.03;;;;;8.60;100257.00;;;;10188396;29;20229;-82
2022/04/04 23:42:12;;;;;;;33.63;21.20;;;;;8.60;100256.00;;;;10172541;29;20222;-82
2022/04/04 23:47:14;;;;;;;33.93;23.63;;;;;8.70;100243.00;;;;10187054;29;20682;-81
2022/04/04 23:52:15;;;;;;;39.03;23.77;;;;;8.70;100256.00;;;;10170075;29;20662;-82
2022/04/04 23:57:17;;;;;;;41.47;23.60;;;;;8.70;100251.00;;;;10171797;29;20194;-81
